Terminal Aerodrome Forecast
Issued by NWS

Home | Current Version | Previous Version | Text Only | Print | Product List | Glossary On
Versions: 1 2 3 4 5 6 7 8 9 10 11 12 13 14 15 16 17 18
000
FTUS45 KABQ 221129
TAFFMN
TAF
KFMN 221129Z 2212/2312 29009KT P6SM SCT003
     FM221500 VRB05KT P6SM SCT080 BKN110
     FM222200 09005KT P6SM VCSH BKN050
     FM230300 09010KT 4SM -SN BR OVC020
     FM230700 13008KT P6SM VCSH OVC008=

USA.gov is the U.S. government's official web portal to all federal, state and local government web resources and services.